Station History

Weather Underground - logo

Station Historical Data
Daily Summary for October 9, 2017 Units:  English    Metric   Both
« Previous Day
Next Day »
Daily Weekly Monthly Yearly Custom
  High: Low: Average:
Temperature: 80.7 °F 50.5 °F 64.5 °F
Dew Point: 51.0 °F 38.2 °F 46 °F
Humidity: 86 % 24 % 56 %
Wind Speed: 5.8 mph 0.0 mph 0.8 mph
Wind Gust: 5.8 mph - -
Wind:- - WSW
Pressure: 29.94 in 29.78 in -
Precipitation: 0.00 in    
Historical Graphs
 
 
Tabular Data for October 9, 2017
Time Temperature Dew Point Pressure Wind Wind Speed Wind Gust Humidity Rainfall Rate (Hourly)
00:02 57.3 °F 49.4 °F 29.78 in Calm     75 % 0.00 in
00:07 57.1 °F 49.2 °F 29.78 in Calm     75 % 0.00 in
00:12 57.3 °F 49.1 °F 29.78 in Calm     74 % 0.00 in
00:17 57.5 °F 49.3 °F 29.78 in Calm     74 % 0.00 in
00:22 57.6 °F 49.0 °F 29.78 in Calm     73 % 0.00 in
00:27 57.5 °F 48.9 °F 29.79 in Calm     73 % 0.00 in
00:32 57.0 °F 48.8 °F 29.79 in Calm     74 % 0.00 in
00:37 56.6 °F 49.1 °F 29.79 in Calm     76 % 0.00 in
00:42 56.2 °F 49.1 °F 29.79 in Calm     77 % 0.00 in
00:48 56.0 °F 48.9 °F 29.79 in Calm     77 % 0.00 in
00:53 56.1 °F 49.3 °F 29.79 in Calm     78 % 0.00 in
00:58 56.0 °F 49.2 °F 29.79 in Calm     78 % 0.00 in
01:03 55.9 °F 49.1 °F 29.79 in Calm     78 % 0.00 in
01:13 55.9 °F 49.1 °F 29.79 in Calm     78 % 0.00 in
01:18 55.6 °F 48.8 °F 29.79 in Calm     78 % 0.00 in
01:28 54.6 °F 48.2 °F 29.79 in Calm     79 % 0.00 in
01:33 54.3 °F 48.3 °F 29.79 in Calm     80 % 0.00 in
01:38 54.0 °F 48.0 °F 29.79 in Calm     80 % 0.00 in
01:43 53.8 °F 48.1 °F 29.79 in Calm     81 % 0.00 in
01:48 53.6 °F 47.9 °F 29.80 in Calm     81 % 0.00 in
01:53 54.0 °F 48.3 °F 29.80 in Calm     81 % 0.00 in
01:58 54.2 °F 48.2 °F 29.80 in Calm     80 % 0.00 in
02:03 54.2 °F 48.2 °F 29.80 in Calm     80 % 0.00 in
02:08 54.1 °F 48.1 °F 29.80 in Calm     80 % 0.00 in
02:13 54.2 °F 48.2 °F 29.80 in Calm     80 % 0.00 in
02:18 54.1 °F 48.1 °F 29.80 in Calm     80 % 0.00 in
02:23 54.3 °F 47.9 °F 29.80 in Calm     79 % 0.00 in
02:28 54.4 °F 48.0 °F 29.80 in Calm     79 % 0.00 in
02:33 54.3 °F 47.9 °F 29.80 in Calm     79 % 0.00 in
02:38 54.1 °F 47.4 °F 29.80 in Calm     78 % 0.00 in
02:43 54.0 °F 47.3 °F 29.80 in Calm     78 % 0.00 in
02:48 54.0 °F 47.3 °F 29.80 in Calm     78 % 0.00 in
02:53 54.0 °F 47.6 °F 29.81 in Calm     79 % 0.00 in
02:58 53.8 °F 47.1 °F 29.81 in Calm     78 % 0.00 in
03:03 53.7 °F 47.3 °F 29.81 in Calm     79 % 0.00 in
03:08 53.7 °F 47.3 °F 29.81 in Calm     79 % 0.00 in
03:13 53.5 °F 47.1 °F 29.81 in Calm     79 % 0.00 in
03:18 53.2 °F 46.9 °F 29.81 in Calm     79 % 0.00 in
03:23 53.1 °F 47.1 °F 29.81 in Calm     80 % 0.00 in
03:28 53.0 °F 47.0 °F 29.81 in Calm     80 % 0.00 in
03:33 52.8 °F 46.8 °F 29.81 in Calm     80 % 0.00 in
03:38 52.7 °F 46.7 °F 29.81 in SE 1.2 mph   80 % 0.00 in
03:43 52.8 °F 46.8 °F 29.82 in Calm     80 % 0.00 in
03:48 52.9 °F 46.9 °F 29.82 in Calm     80 % 0.00 in
03:53 53.2 °F 46.9 °F 29.81 in SE 1.2 mph 1.2 mph 79 % 0.00 in
03:58 53.6 °F 47.2 °F 29.82 in SE 1.2 mph 1.2 mph 79 % 0.00 in
04:03 53.6 °F 46.9 °F 29.81 in SE 1.2 mph   78 % 0.00 in
04:08 53.5 °F 46.8 °F 29.81 in Calm     78 % 0.00 in
04:13 53.3 °F 46.6 °F 29.82 in Calm     78 % 0.00 in
04:18 53.2 °F 46.5 °F 29.82 in Calm     78 % 0.00 in
04:23 53.1 °F 46.4 °F 29.82 in Calm     78 % 0.00 in
04:28 52.9 °F 47.2 °F 29.82 in Calm     81 % 0.00 in
04:33 52.7 °F 47.0 °F 29.82 in Calm     81 % 0.00 in
04:38 52.4 °F 46.7 °F 29.82 in Calm     81 % 0.00 in
04:44 52.3 °F 47.0 °F 29.82 in Calm     82 % 0.00 in
04:49 52.2 °F 47.2 °F 29.83 in Calm     83 % 0.00 in
04:54 51.9 °F 46.9 °F 29.83 in Calm     83 % 0.00 in
04:59 51.8 °F 47.1 °F 29.82 in Calm     84 % 0.00 in
05:04 51.6 °F 46.9 °F 29.83 in Calm     84 % 0.00 in
05:09 51.5 °F 47.1 °F 29.82 in Calm     85 % 0.00 in
05:14 51.5 °F 47.1 °F 29.83 in Calm     85 % 0.00 in
05:19 51.4 °F 47.0 °F 29.83 in Calm     85 % 0.00 in
05:24 51.6 °F 47.5 °F 29.83 in Calm     86 % 0.00 in
05:29 51.8 °F 47.4 °F 29.83 in Calm     85 % 0.00 in
05:34 52.0 °F 47.6 °F 29.83 in Calm     85 % 0.00 in
05:39 52.0 °F 47.3 °F 29.83 in Calm     84 % 0.00 in
05:44 51.8 °F 47.4 °F 29.83 in Calm     85 % 0.00 in
05:49 51.5 °F 47.1 °F 29.84 in Calm     85 % 0.00 in
05:54 50.8 °F 46.1 °F 29.84 in Calm     84 % 0.00 in
05:59 50.5 °F 46.5 °F 29.84 in Calm     86 % 0.00 in
06:04 50.6 °F 46.3 °F 29.85 in Calm     85 % 0.00 in
06:09 50.7 °F 46.4 °F 29.85 in Calm     85 % 0.00 in
06:14 50.9 °F 46.6 °F 29.85 in Calm     85 % 0.00 in
06:19 50.9 °F 46.6 °F 29.85 in Calm     85 % 0.00 in
06:24 50.8 °F 46.5 °F 29.85 in Calm     85 % 0.00 in
06:29 50.8 °F 46.5 °F 29.85 in Calm     85 % 0.00 in
06:30 50.8 °F 46.5 °F 29.85 in Calm     85 % 0.00 in
06:35 50.8 °F 46.5 °F 29.85 in Calm     85 % 0.00 in
06:40 50.9 °F 46.6 °F 29.86 in Calm     85 % 0.00 in
06:45 50.9 °F 46.6 °F 29.86 in Calm     85 % 0.00 in
06:55 50.9 °F 46.6 °F 29.86 in Calm     85 % 0.00 in
07:05 50.9 °F 46.9 °F 29.86 in Calm     86 % 0.00 in
07:10 51.3 °F 46.6 °F 29.86 in Calm     84 % 0.00 in
07:15 51.7 °F 47.0 °F 29.87 in Calm     84 % 0.00 in
07:20 51.8 °F 47.1 °F 29.87 in Calm     84 % 0.00 in
07:25 51.8 °F 47.1 °F 29.87 in Calm     84 % 0.00 in
07:30 52.0 °F 46.7 °F 29.87 in Calm     82 % 0.00 in
07:35 52.4 °F 47.1 °F 29.88 in Calm     82 % 0.00 in
07:40 52.6 °F 47.6 °F 29.88 in Calm     83 % 0.00 in
07:45 52.8 °F 47.5 °F 29.88 in Calm     82 % 0.00 in
07:50 53.0 °F 47.7 °F 29.88 in Calm     82 % 0.00 in
08:00 54.0 °F 49.0 °F 29.89 in Calm     83 % 0.00 in
08:05 54.5 °F 49.1 °F 29.89 in Calm     82 % 0.00 in
08:10 55.4 °F 49.7 °F 29.89 in Calm     81 % 0.00 in
08:12 55.9 °F 50.2 °F 29.90 in Calm     81 % 0.00 in
08:17 57.0 °F 50.5 °F 29.90 in Calm     79 % 0.00 in
08:22 58.2 °F 51.0 °F 29.90 in Calm     77 % 0.00 in
08:27 59.4 °F 50.7 °F 29.91 in Calm     73 % 0.00 in
08:32 60.5 °F 51.0 °F 29.91 in Calm     71 % 0.00 in
08:37 61.4 °F 50.7 °F 29.91 in Calm     68 % 0.00 in
08:42 61.3 °F 50.2 °F 29.92 in Calm     67 % 0.00 in
08:47 61.2 °F 50.2 °F 29.92 in ENE 1.2 mph   67 % 0.00 in
08:52 61.3 °F 49.4 °F 29.92 in West 1.2 mph   65 % 0.00 in
08:57 62.0 °F 49.7 °F 29.92 in WSW 1.0 mph   64 % 0.00 in
09:02 63.0 °F 49.3 °F 29.92 in SSE 2.3 mph   61 % 0.00 in
09:07 63.8 °F 49.2 °F 29.93 in South 1.2 mph 1.2 mph 59 % 0.00 in
09:12 64.2 °F 49.1 °F 29.92 in Calm     58 % 0.00 in
09:17 64.9 °F 49.3 °F 29.93 in Calm     57 % 0.00 in
09:22 65.0 °F 49.4 °F 29.93 in East 1.2 mph   57 % 0.00 in
09:27 65.4 °F 50.2 °F 29.93 in SE 1.2 mph 1.2 mph 58 % 0.00 in
09:32 66.0 °F 49.8 °F 29.93 in SSE 2.3 mph   56 % 0.00 in
09:37 66.1 °F 49.9 °F 29.93 in ESE 1.0 mph 1.0 mph 56 % 0.00 in
09:43 66.5 °F 49.8 °F 29.93 in SE 1.2 mph 1.2 mph 55 % 0.00 in
09:48 66.9 °F 49.7 °F 29.93 in Calm     54 % 0.00 in
09:53 67.3 °F 49.6 °F 29.93 in ESE 1.2 mph 1.2 mph 53 % 0.00 in
09:58 67.7 °F 48.9 °F 29.93 in SE 1.2 mph 1.2 mph 51 % 0.00 in
10:03 67.9 °F 49.6 °F 29.93 in SE 2.3 mph 2.3 mph 52 % 0.00 in
10:04 68.0 °F 50.2 °F 29.93 in SE 2.3 mph 2.3 mph 53 % 0.00 in
10:09 68.1 °F 49.3 °F 29.94 in SE 1.2 mph 1.2 mph 51 % 0.00 in
10:14 68.4 °F 50.1 °F 29.93 in SE 1.2 mph 1.2 mph 52 % 0.00 in
10:19 68.8 °F 49.4 °F 29.94 in SW 2.3 mph 2.3 mph 50 % 0.00 in
10:24 69.2 °F 49.2 °F 29.94 in ENE 2.3 mph 2.3 mph 49 % 0.00 in
10:29 69.6 °F 50.1 °F 29.94 in SE 2.0 mph 2.0 mph 50 % 0.00 in
10:34 70.0 °F 49.4 °F 29.94 in Calm     48 % 0.00 in
10:39 70.7 °F 49.5 °F 29.94 in South 3.5 mph 3.5 mph 47 % 0.00 in
10:44 71.2 °F 49.4 °F 29.94 in WNW 1.2 mph 1.2 mph 46 % 0.00 in
10:49 71.4 °F 49.5 °F 29.94 in NW 2.3 mph 2.3 mph 46 % 0.00 in
10:54 72.0 °F 50.7 °F 29.94 in NNE 1.2 mph 1.2 mph 47 % 0.00 in
10:59 72.3 °F 50.4 °F 29.94 in SSW 1.2 mph 1.2 mph 46 % 0.00 in
11:04 72.6 °F 50.0 °F 29.94 in Calm     45 % 0.00 in
11:09 73.3 °F 50.1 °F 29.94 in Calm     44 % 0.00 in
11:14 73.6 °F 49.1 °F 29.93 in WNW 1.2 mph 1.2 mph 42 % 0.00 in
11:19 73.5 °F 49.0 °F 29.93 in WNW 2.3 mph 2.3 mph 42 % 0.00 in
11:24 73.7 °F 49.2 °F 29.93 in South 2.3 mph   42 % 0.00 in
11:29 74.2 °F 50.3 °F 29.93 in Calm   0.5 mph 43 % 0.00 in
11:34 74.6 °F 48.7 °F 29.93 in SSE 3.5 mph 3.5 mph 40 % 0.00 in
11:39 75.1 °F 47.0 °F 29.93 in NW 2.3 mph 2.3 mph 37 % 0.00 in
11:44 75.4 °F 46.6 °F 29.93 in SSE 2.3 mph 2.3 mph 36 % 0.00 in
11:49 75.6 °F 46.8 °F 29.93 in WNW 3.5 mph   36 % 0.00 in
11:54 76.1 °F 46.5 °F 29.93 in SSE 3.5 mph 3.5 mph 35 % 0.00 in
12:00 76.6 °F 45.3 °F 29.93 in NNE 2.3 mph 2.3 mph 33 % 0.00 in
12:05 76.7 °F 42.9 °F 29.93 in SSW 1.2 mph 1.2 mph 30 % 0.00 in
12:10 76.8 °F 42.1 °F 29.93 in North 1.2 mph 1.2 mph 29 % 0.00 in
12:15 76.6 °F 42.0 °F 29.93 in WNW 1.2 mph 1.2 mph 29 % 0.00 in
12:20 76.8 °F 43.0 °F 29.93 in ENE 1.2 mph 1.2 mph 30 % 0.00 in
12:25 76.8 °F 39.3 °F 29.93 in SSW 2.3 mph 2.3 mph 26 % 0.00 in
12:30 77.5 °F 40.9 °F 29.93 in WNW 1.2 mph 1.2 mph 27 % 0.00 in
12:35 77.9 °F 40.2 °F 29.92 in West 2.3 mph 2.3 mph 26 % 0.00 in
12:40 77.5 °F 38.9 °F 29.92 in WNW 2.3 mph 2.3 mph 25 % 0.00 in
12:45 77.4 °F 38.8 °F 29.92 in WNW 2.3 mph 2.3 mph 25 % 0.00 in
12:50 77.9 °F 38.2 °F 29.92 in WNW 2.3 mph 2.3 mph 24 % 0.00 in
12:55 78.1 °F 39.4 °F 29.92 in WNW 3.5 mph 3.5 mph 25 % 0.00 in
13:10 79.1 °F 41.3 °F 29.91 in NW 3.5 mph 3.5 mph 26 % 0.00 in
13:15 78.8 °F 40.0 °F 29.91 in WNW 3.5 mph 3.5 mph 25 % 0.00 in
13:20 78.9 °F 41.1 °F 29.91 in NW 2.0 mph 2.0 mph 26 % 0.00 in
13:25 78.9 °F 40.1 °F 29.91 in West 2.0 mph 2.0 mph 25 % 0.00 in
13:30 78.9 °F 41.1 °F 29.91 in NW 2.3 mph 2.3 mph 26 % 0.00 in
13:35 78.7 °F 39.9 °F 29.91 in NW 2.3 mph 2.3 mph 25 % 0.00 in
13:40 78.5 °F 39.7 °F 29.91 in NW 2.3 mph 2.3 mph 25 % 0.00 in
13:45 78.7 °F 41.9 °F 29.91 in WNW 3.5 mph 3.5 mph 27 % 0.00 in
13:50 78.6 °F 40.8 °F 29.90 in WNW 1.2 mph 1.2 mph 26 % 0.00 in
13:55 78.8 °F 40.0 °F 29.90 in NW 3.5 mph 3.5 mph 25 % 0.00 in
14:00 79.2 °F 42.3 °F 29.90 in Calm     27 % 0.00 in
14:05 79.6 °F 41.7 °F 29.90 in WNW 2.3 mph 2.3 mph 26 % 0.00 in
14:10 79.3 °F 41.4 °F 29.90 in NW 1.2 mph 1.3 mph 26 % 0.00 in
14:15 79.0 °F 40.2 °F 29.90 in NW 2.3 mph 2.3 mph 25 % 0.00 in
14:20 79.2 °F 41.3 °F 29.90 in West 1.2 mph 1.2 mph 26 % 0.00 in
14:25 79.9 °F 40.9 °F 29.90 in NW 3.0 mph 3.0 mph 25 % 0.00 in
14:31 79.4 °F 42.5 °F 29.90 in West 1.2 mph 1.2 mph 27 % 0.00 in
14:36 80.0 °F 42.0 °F 29.89 in SE 1.2 mph   26 % 0.00 in
14:41 80.4 °F 41.3 °F 29.89 in WNW 3.5 mph 3.5 mph 25 % 0.00 in
14:46 80.3 °F 42.3 °F 29.89 in NW 3.5 mph 3.5 mph 26 % 0.00 in
14:51 80.3 °F 41.3 °F 29.89 in NW 3.5 mph 3.5 mph 25 % 0.00 in
14:56 79.8 °F 41.9 °F 29.89 in NW 1.2 mph 1.2 mph 26 % 0.00 in
15:01 80.0 °F 43.0 °F 29.89 in West 5.8 mph 5.8 mph 27 % 0.00 in
15:11 79.7 °F 41.8 °F 29.89 in NNW 3.5 mph 3.5 mph 26 % 0.00 in
15:16 79.9 °F 41.9 °F 29.89 in NW 3.5 mph 3.5 mph 26 % 0.00 in
15:21 79.9 °F 42.9 °F 29.89 in WNW 2.3 mph 2.3 mph 27 % 0.00 in
15:26 80.1 °F 43.1 °F 29.89 in NW 3.5 mph 3.5 mph 27 % 0.00 in
15:31 80.3 °F 41.3 °F 29.89 in NW 3.5 mph 3.5 mph 25 % 0.00 in
15:36 80.7 °F 42.6 °F 29.89 in NW 2.3 mph 2.3 mph 26 % 0.00 in
15:46 80.3 °F 41.3 °F 29.89 in NW 3.5 mph 3.5 mph 25 % 0.00 in
15:51 80.2 °F 41.2 °F 29.89 in NW 3.5 mph 3.5 mph 25 % 0.00 in
15:56 80.2 °F 41.2 °F 29.89 in WNW 2.3 mph 2.3 mph 25 % 0.00 in
16:01 80.0 °F 40.0 °F 29.89 in North 3.0 mph 3.0 mph 24 % 0.00 in
16:11 79.9 °F 40.9 °F 29.89 in NW 2.3 mph 2.3 mph 25 % 0.00 in
16:16 79.6 °F 40.7 °F 29.88 in NW 3.5 mph 3.5 mph 25 % 0.00 in
16:21 79.3 °F 40.4 °F 29.88 in WSW 1.2 mph   25 % 0.00 in
16:26 79.3 °F 40.4 °F 29.88 in NNW 3.5 mph 3.5 mph 25 % 0.00 in
16:31 79.4 °F 40.5 °F 29.88 in NW 2.0 mph 2.0 mph 25 % 0.00 in
16:36 79.5 °F 40.6 °F 29.88 in NW 3.5 mph 3.5 mph 25 % 0.00 in
16:41 79.5 °F 39.5 °F 29.88 in Calm     24 % 0.00 in
16:46 79.4 °F 41.5 °F 29.88 in NW 2.3 mph 2.3 mph 26 % 0.00 in
16:51 79.2 °F 40.3 °F 29.88 in Calm     25 % 0.00 in
16:56 79.0 °F 41.2 °F 29.88 in Calm     26 % 0.00 in
17:01 78.9 °F 43.9 °F 29.88 in WNW 2.0 mph 2.0 mph 29 % 0.00 in
17:06 78.8 °F 42.0 °F 29.88 in NW 2.0 mph 2.0 mph 27 % 0.00 in
17:11 78.6 °F 42.8 °F 29.88 in WNW 2.0 mph 2.0 mph 28 % 0.00 in
17:21 78.2 °F 43.3 °F 29.88 in NW 1.2 mph 1.2 mph 29 % 0.00 in
17:26 78.1 °F 41.4 °F 29.88 in NW 3.0 mph 3.0 mph 27 % 0.00 in
17:31 78.1 °F 42.3 °F 29.88 in Calm     28 % 0.00 in
17:36 77.8 °F 42.1 °F 29.88 in NW 1.2 mph   28 % 0.00 in
17:41 77.5 °F 41.8 °F 29.88 in Calm     28 % 0.00 in
17:46 77.2 °F 42.5 °F 29.88 in NW 1.2 mph   29 % 0.00 in
17:51 76.8 °F 42.1 °F 29.88 in NW 1.2 mph 1.2 mph 29 % 0.00 in
17:56 76.5 °F 43.6 °F 29.88 in Calm     31 % 0.00 in
18:01 76.2 °F 43.3 °F 29.88 in NW 1.2 mph 1.2 mph 31 % 0.00 in
18:06 75.9 °F 43.1 °F 29.88 in Calm   0.1 mph 31 % 0.00 in
18:11 75.6 °F 43.7 °F 29.88 in Calm     32 % 0.00 in
18:13 75.4 °F 43.5 °F 29.88 in Calm     32 % 0.00 in
18:18 75.1 °F 44.8 °F 29.88 in Calm     34 % 0.00 in
18:23 74.4 °F 46.4 °F 29.88 in Calm     37 % 0.00 in
18:28 73.5 °F 47.0 °F 29.88 in Calm     39 % 0.00 in
18:33 72.5 °F 46.1 °F 29.88 in Calm     39 % 0.00 in
18:38 71.6 °F 46.6 °F 29.88 in Calm     41 % 0.00 in
18:43 71.0 °F 46.7 °F 29.89 in Calm   0.2 mph 42 % 0.00 in
18:48 70.1 °F 46.6 °F 29.89 in Calm     43 % 0.00 in
18:53 69.5 °F 46.6 °F 29.89 in Calm     44 % 0.00 in
18:58 68.9 °F 47.8 °F 29.89 in Calm     47 % 0.00 in
19:03 68.2 °F 47.8 °F 29.89 in Calm     48 % 0.00 in
19:08 67.5 °F 48.2 °F 29.89 in Calm     50 % 0.00 in
19:13 66.9 °F 48.2 °F 29.89 in Calm     51 % 0.00 in
19:18 66.4 °F 49.2 °F 29.89 in Calm     54 % 0.00 in
19:23 65.6 °F 48.0 °F 29.89 in Calm     53 % 0.00 in
19:29 65.0 °F 47.9 °F 29.89 in Calm     54 % 0.00 in
19:34 64.5 °F 48.0 °F 29.89 in Calm     55 % 0.00 in
19:39 64.3 °F 47.3 °F 29.89 in Calm     54 % 0.00 in
19:44 65.1 °F 47.0 °F 29.89 in Calm     52 % 0.00 in
19:50 65.8 °F 45.6 °F 29.89 in Calm     48 % 0.00 in
19:55 66.3 °F 45.5 °F 29.89 in Calm     47 % 0.00 in
20:00 66.6 °F 45.7 °F 29.90 in Calm     47 % 0.00 in
20:05 66.3 °F 45.5 °F 29.90 in Calm     47 % 0.00 in
20:10 66.0 °F 45.7 °F 29.90 in Calm     48 % 0.00 in
20:16 65.9 °F 45.6 °F 29.90 in Calm     48 % 0.00 in
20:19 65.5 °F 46.4 °F 29.90 in Calm     50 % 0.00 in
20:21 65.4 °F 46.8 °F 29.90 in Calm     51 % 0.00 in
20:31 64.5 °F 47.5 °F 29.90 in Calm     54 % 0.00 in
20:36 63.7 °F 46.7 °F 29.90 in Calm     54 % 0.00 in
20:41 63.1 °F 46.7 °F 29.90 in Calm     55 % 0.00 in
20:46 63.0 °F 46.1 °F 29.90 in NW 1.0 mph 1.0 mph 54 % 0.00 in
20:51 63.7 °F 45.2 °F 29.90 in Calm     51 % 0.00 in
20:54 64.1 °F 45.6 °F 29.90 in Calm     51 % 0.00 in
20:59 64.8 °F 44.6 °F 29.90 in NNW 1.2 mph   48 % 0.00 in
21:04 65.5 °F 44.2 °F 29.90 in North 1.2 mph 1.2 mph 46 % 0.00 in
21:14 66.1 °F 42.9 °F 29.90 in Calm     43 % 0.00 in
21:19 66.2 °F 43.0 °F 29.91 in Calm     43 % 0.00 in
21:24 66.2 °F 42.4 °F 29.91 in WNW 1.2 mph   42 % 0.00 in
21:29 66.2 °F 42.4 °F 29.91 in Calm     42 % 0.00 in
21:34 65.8 °F 43.3 °F 29.91 in Calm     44 % 0.00 in
21:39 65.3 °F 43.4 °F 29.91 in Calm     45 % 0.00 in
21:44 64.7 °F 44.0 °F 29.91 in Calm     47 % 0.00 in
21:49 63.9 °F 45.4 °F 29.91 in Calm     51 % 0.00 in
21:54 62.5 °F 44.6 °F 29.91 in Calm     52 % 0.00 in
21:59 61.5 °F 45.7 °F 29.91 in Calm     56 % 0.00 in
22:04 60.7 °F 44.9 °F 29.92 in Calm     56 % 0.00 in
22:05 60.5 °F 45.6 °F 29.92 in Calm     58 % 0.00 in
22:10 60.0 °F 45.2 °F 29.92 in SSE 1.2 mph   58 % 0.00 in
22:20 58.8 °F 45.8 °F 29.92 in Calm     62 % 0.00 in
22:25 58.5 °F 45.9 °F 29.92 in Calm     63 % 0.00 in
22:30 58.2 °F 46.1 °F 29.92 in Calm     64 % 0.00 in
22:36 57.9 °F 46.6 °F 29.92 in Calm     66 % 0.00 in
22:41 57.8 °F 46.1 °F 29.92 in Calm     65 % 0.00 in
22:46 58.0 °F 45.9 °F 29.92 in Calm     64 % 0.00 in
22:51 58.0 °F 45.9 °F 29.92 in Calm     64 % 0.00 in
22:56 57.9 °F 46.2 °F 29.92 in Calm     65 % 0.00 in
23:01 57.6 °F 45.1 °F 29.92 in Calm     63 % 0.00 in
23:06 57.5 °F 47.0 °F 29.92 in Calm     68 % 0.00 in
23:11 57.3 °F 46.4 °F 29.92 in Calm     67 % 0.00 in
23:16 56.7 °F 46.3 °F 29.92 in Calm     68 % 0.00 in
23:21 56.2 °F 46.5 °F 29.92 in Calm     70 % 0.00 in
23:26 56.0 °F 46.4 °F 29.92 in Calm     70 % 0.00 in
23:31 56.1 °F 46.8 °F 29.92 in Calm     71 % 0.00 in
23:36 56.1 °F 46.4 °F 29.92 in Calm     70 % 0.00 in
23:41 56.0 °F 46.7 °F 29.92 in Calm     71 % 0.00 in
23:46 55.9 °F 46.3 °F 29.92 in Calm     70 % 0.00 in
23:51 55.6 °F 46.7 °F 29.92 in Calm     72 % 0.00 in
23:56 55.5 °F 46.6 °F 29.92 in Calm     72 % 0.00 in
Park Place, Exeter, Tulare County, California, USA
Compliments of Weather Underground - 2.75 mb